Hovedside
METAR-TAF:

METAR-TAF

Lufthavner :

Riberalta, Bolivia

breddegrad: 11-00S, lengdegrad: 066-07W, høyde over havet: 141 m

Gjeldene værobservasjon

Denne rapporten ble laget for 51 minutter siden, klokken 15:00 UTC
Vind 10 kt fra Nord-nordvest
Temperatur 29°C
Luftfuktighet 79%
Trykk 1013 hPa
Sikt 10 km eller mer
Spredte skyer i en høyde av 1500 ft
Brutte skyer i en høyde av 8000 ft
Brutte skyer i en høyde av 20000 ft

METAR: SLRI 301500Z 34010KT 9999 SCT015 BKN080 BKN200 29/25 Q1013

Tid: 11:51 (15:51 UTC)


TAF: fraværende

Værobservasjoner og værvarsel for over 4000 flyplasser (METAR- og TAF-rapporter).

Tilgjengelige stasjoner er representert av de røde og gule prikkene på kartet.

Hold musepekeren over prikken for å se navnet på stasjonen.

Klikk så for å se værobservasjoner og -varsler.

For å forandre kartet kan du klikke på den grønne knappen med svart kryss for å zoome inn, på den grønne knappen med strek for å zoome ut, eller på de grønne pilene for å se tilstøtende kart.


METAR-TAF: